Time;durP1;ratioP1;P1;durP2;ratioP2;P2;SDS_P1;SDS_P2;PMS_P1;PMS_P2;Temp;Humidity;BMP_temperature;BMP_pressure;BME280_temperature;BME280_humidity;BME280_pressure;Samples;Min_cycle;Max_cycle;Signal;HPM_P1;HPM_P2
2021/05/18 00:01:14;;;;;;;1.20;0.97;;;11.40;98.00;;;;;;5071737;28;20462;-73
2021/05/18 00:03:40;;;;;;;1.20;1.00;;;11.50;98.00;;;;;;5067680;28;21288;-73
2021/05/18 00:06:07;;;;;;;1.20;1.00;;;11.40;98.00;;;;;;5071713;28;20462;-73
2021/05/18 00:11:42;;;;;;;1.20;0.90;;;11.40;98.00;;;;;;5069151;28;20454;-72
2021/05/18 00:14:06;;;;;;;1.30;1.07;;;11.50;98.00;;;;;;5067714;28;20590;-72
2021/05/18 00:16:32;;;;;;;1.20;1.07;;;11.40;98.00;;;;;;5071406;28;20459;-73
2021/05/18 00:18:59;;;;;;;1.20;0.90;;;11.40;98.00;;;;;;5069684;28;20482;-73
2021/05/18 00:21:26;;;;;;;1.20;1.00;;;11.40;98.00;;;;;;5071812;28;20453;-73
2021/05/18 00:23:53;;;;;;;1.20;1.00;;;11.30;98.00;;;;;;5067888;28;20469;-72
2021/05/18 00:26:20;;;;;;;1.20;0.90;;;11.30;98.00;;;;;;5071787;28;20458;-73
2021/05/18 00:28:46;;;;;;;1.20;0.90;;;11.30;98.00;;;;;;5068046;28;20518;-72
2021/05/18 00:31:14;;;;;;;1.20;1.10;;;11.40;98.00;;;;;;5071754;28;20483;-72
2021/05/18 00:33:42;;;;;;;1.20;1.00;;;11.30;98.00;;;;;;5068722;28;20541;-72
2021/05/18 00:36:10;;;;;;;1.20;0.90;;;11.30;98.00;;;;;;5071802;28;20468;-73
2021/05/18 00:38:37;;;;;;;1.20;0.90;;;11.20;98.00;;;;;;5069079;28;20496;-73
2021/05/18 00:41:05;;;;;;;1.20;0.97;;;11.20;98.00;;;;;;5071459;28;20460;-72
2021/05/18 00:43:32;;;;;;;1.20;0.97;;;11.30;98.00;;;;;;5068825;28;20489;-72
2021/05/18 00:45:58;;;;;;;1.20;1.00;;;11.20;98.00;;;;;;5070244;28;20788;-72
2021/05/18 00:48:25;;;;;;;1.20;1.00;;;11.10;98.00;;;;;;5071328;28;21104;-73
2021/05/18 00:50:54;;;;;;;1.20;1.00;;;11.10;98.00;;;;;;5069407;28;20456;-72
2021/05/18 00:53:21;;;;;;;1.20;1.00;;;11.10;98.00;;;;;;5071197;28;20515;-73
2021/05/18 00:55:51;;;;;;;1.20;1.00;;;11.10;98.00;;;;;;5067481;28;20464;-73
2021/05/18 00:58:30;;;;;;;1.20;1.00;;;11.10;98.00;;;;;;5071129;28;20492;-73
2021/05/18 01:00:59;;;;;;;1.20;0.90;;;11.20;98.00;;;;;;5071400;28;20460;-73
2021/05/18 01:03:26;;;;;;;1.20;0.90;;;11.20;98.00;;;;;;5071082;28;20459;-73
2021/05/18 01:08:38;;;;;;;1.30;1.07;;;11.10;98.00;;;;;;5068919;28;20450;-73
2021/05/18 01:11:05;;;;;;;1.80;1.17;;;11.10;98.00;;;;;;5070052;28;20462;-73
2021/05/18 01:13:35;;;;;;;1.20;0.90;;;11.20;98.00;;;;;;5069384;28;20453;-73
2021/05/18 01:16:01;;;;;;;1.20;0.90;;;11.30;98.00;;;;;;5074376;28;20459;-73
2021/05/18 01:18:29;;;;;;;1.20;1.00;;;11.40;98.00;;;;;;5074226;28;20479;-73
2021/05/18 01:20:59;;;;;;;1.20;1.10;;;11.40;98.00;;;;;;5074157;28;20941;-73
2021/05/18 01:23:26;;;;;;;1.20;0.90;;;11.40;98.00;;;;;;5074989;28;20939;-73
2021/05/18 01:25:54;;;;;;;1.20;0.90;;;11.40;98.00;;;;;;5072137;28;20464;-72
2021/05/18 01:28:21;;;;;;;1.20;1.00;;;11.30;98.00;;;;;;5074647;28;20873;-73
2021/05/18 01:30:49;;;;;;;1.20;0.90;;;11.20;98.00;;;;;;5071523;28;20468;-73
2021/05/18 01:33:16;;;;;;;1.37;1.10;;;11.20;98.00;;;;;;5074462;28;20452;-73
2021/05/18 01:35:44;;;;;;;1.20;1.00;;;11.10;98.00;;;;;;5071959;28;20876;-73
2021/05/18 01:38:14;;;;;;;1.20;1.00;;;11.10;98.00;;;;;;5090089;28;20941;-73
2021/05/18 01:43:25;;;;;;;1.20;0.90;;;10.90;98.00;;;;;;5074735;28;20547;-73
2021/05/18 01:45:52;;;;;;;1.20;1.00;;;10.80;98.00;;;;;;5071803;28;20465;-73
2021/05/18 01:48:18;;;;;;;1.20;1.00;;;10.80;98.00;;;;;;5073150;28;20464;-73
2021/05/18 01:50:47;;;;;;;1.20;0.90;;;10.90;98.00;;;;;;5072069;28;20461;-73
2021/05/18 01:53:16;;;;;;;1.20;1.00;;;10.90;98.00;;;;;;5074366;28;20462;-73
2021/05/18 01:55:51;;;;;;;1.20;1.00;;;11.00;98.00;;;;;;5071814;28;20446;-73
2021/05/18 01:58:18;;;;;;;1.20;0.90;;;11.00;98.00;;;;;;5074552;28;20516;-73
2021/05/18 02:00:45;;;;;;;1.20;0.90;;;11.20;98.00;;;;;;5072095;28;20460;-72
2021/05/18 02:03:11;;;;;;;1.20;1.00;;;11.10;98.00;;;;;;5074411;28;20789;-73
2021/05/18 02:05:41;;;;;;;1.20;0.90;;;11.10;98.00;;;;;;5071618;28;21017;-73
2021/05/18 02:08:10;;;;;;;1.20;0.90;;;11.10;98.00;;;;;;5074244;28;20924;-73
2021/05/18 02:10:38;;;;;;;1.20;1.00;;;11.10;98.00;;;;;;5071561;28;20465;-72
2021/05/18 02:13:05;;;;;;;1.20;1.00;;;11.20;98.00;;;;;;5074095;28;20776;-73
2021/05/18 02:15:39;;;;;;;1.40;1.07;;;11.20;98.00;;;;;;5071106;28;20467;-73
2021/05/18 02:18:32;;;;;;;1.20;1.00;;;11.10;98.00;;;;;;5073880;28;20454;-73
2021/05/18 02:21:15;;;;;;;1.20;0.90;;;11.10;98.00;;;;;;5071628;28;21180;-73
2021/05/18 02:26:28;;;;;;;1.20;1.00;;;11.00;98.00;;;;;;5075149;28;20463;-72
2021/05/18 02:28:55;;;;;;;1.20;1.00;;;11.00;98.00;;;;;;5071168;28;20457;-72
2021/05/18 02:31:23;;;;;;;1.20;0.90;;;10.90;98.00;;;;;;5073517;28;20450;-72
2021/05/18 02:33:50;;;;;;;1.20;0.90;;;10.90;98.00;;;;;;5071147;28;21062;-73
2021/05/18 02:36:18;;;;;;;1.20;0.90;;;10.90;98.00;;;;;;5073443;28;20459;-73
2021/05/18 02:38:44;;;;;;;1.20;0.97;;;10.90;98.00;;;;;;5070899;28;20976;-73
2021/05/18 02:41:11;;;;;;;1.20;0.90;;;10.90;98.00;;;;;;5072268;28;20861;-72
2021/05/18 02:43:43;;;;;;;1.20;0.90;;;10.90;98.00;;;;;;5072645;28;21059;-73
2021/05/18 02:46:20;;;;;;;1.20;0.90;;;11.00;98.00;;;;;;5073278;28;20467;-72
2021/05/18 02:51:38;;;;;;;1.20;0.90;;;11.00;98.00;;;;;;5062445;28;20474;-72
2021/05/18 02:54:06;;;;;;;1.20;0.90;;;11.10;98.00;;;;;;5070422;28;20452;-72
2021/05/18 02:56:38;;;;;;;1.20;0.90;;;11.00;98.00;;;;;;5073105;28;20459;-73
2021/05/18 02:59:12;;;;;;;1.20;0.90;;;11.10;98.00;;;;;;5070591;28;20569;-72
2021/05/18 03:01:40;;;;;;;1.20;1.00;;;11.00;98.00;;;;;;5072859;28;20479;-72
2021/05/18 03:04:06;;;;;;;1.20;0.90;;;11.00;98.00;;;;;;5070598;28;20467;-73
2021/05/18 03:06:34;;;;;;;1.20;1.00;;;10.90;98.00;;;;;;5072875;28;20465;-72
2021/05/18 03:09:01;;;;;;;1.20;0.90;;;10.90;98.00;;;;;;5070407;28;21268;-72
2021/05/18 03:11:27;;;;;;;1.20;0.90;;;10.90;98.00;;;;;;5072905;28;20549;-72
2021/05/18 03:13:54;;;;;;;1.20;0.90;;;10.90;98.00;;;;;;5070090;28;20819;-73
2021/05/18 03:16:22;;;;;;;1.20;0.90;;;10.80;98.00;;;;;;5072459;28;20463;-72
2021/05/18 03:18:49;;;;;;;1.20;0.90;;;10.80;98.00;;;;;;5070465;28;20492;-72
2021/05/18 03:21:15;;;;;;;1.43;1.17;;;10.80;98.00;;;;;;5071262;28;20479;-72
2021/05/18 03:23:42;;;;;;;1.20;0.90;;;10.80;98.00;;;;;;5071961;28;20505;-71
2021/05/18 03:26:08;;;;;;;1.20;1.00;;;10.80;98.00;;;;;;5071258;28;20462;-72
2021/05/18 03:28:35;;;;;;;1.87;1.40;;;10.80;98.00;;;;;;5072327;28;20461;-72
2021/05/18 03:34:26;;;;;;;1.20;1.00;;;10.80;98.00;;;;;;5070407;28;20468;-72
2021/05/18 03:36:46;;;;;;;1.20;1.00;;;10.60;98.00;;;;;;5071518;28;20453;-72
2021/05/18 03:39:12;;;;;;;1.20;1.00;;;10.60;98.00;;;;;;5069342;28;20512;-72
2021/05/18 03:41:51;;;;;;;1.20;1.00;;;10.40;98.00;;;;;;5072123;28;20463;-72
2021/05/18 03:44:22;;;;;;;1.20;0.90;;;10.40;98.00;;;;;;5070207;28;20453;-72
2021/05/18 03:52:22;;;;;;;1.20;0.90;;;10.30;98.00;;;;;;5072206;28;20464;-72
2021/05/18 03:55:00;;;;;;;1.20;1.00;;;10.30;98.00;;;;;;5069833;28;20451;-72
2021/05/18 04:03:05;;;;;;;1.20;0.90;;;10.50;98.00;;;;;;5071122;28;20501;-72
2021/05/18 04:19:29;;;;;;;1.20;1.00;;;11.00;98.00;;;;;;5069184;28;20485;-72
2021/05/18 04:22:14;;;;;;;1.20;0.90;;;10.90;98.00;;;;;;5071239;28;20540;-73
2021/05/18 04:38:46;;;;;;;1.20;0.90;;;11.10;98.00;;;;;;5071894;28;20447;-72
2021/05/18 04:41:25;;;;;;;1.20;0.90;;;11.10;98.00;;;;;;5069611;28;20457;-72
2021/05/18 04:52:09;;;;;;;1.20;0.90;;;11.20;98.00;;;;;;5075582;28;20480;-73
2021/05/18 04:55:20;;;;;;;1.20;0.97;;;11.30;98.00;;;;;;5071723;28;20517;-73
2021/05/18 05:00:37;;;;;;;1.20;1.00;;;11.50;98.00;;;;;;5072162;28;20512;-72
2021/05/18 05:03:22;;;;;;;1.20;1.10;;;11.50;98.00;;;;;;5075115;28;20454;-72
2021/05/18 05:08:40;;;;;;;1.20;1.00;;;11.60;98.00;;;;;;5075144;28;20448;-72
2021/05/18 05:16:49;;;;;;;1.20;1.00;;;11.50;98.00;;;;;;5032263;28;20503;-72
2021/05/18 05:19:16;;;;;;;1.20;0.90;;;11.50;98.00;;;;;;5061784;28;20838;-73
2021/05/18 05:21:45;;;;;;;1.30;1.00;;;11.50;98.00;;;;;;5074584;28;20457;-72
2021/05/18 05:24:12;;;;;;;1.20;0.90;;;11.50;98.00;;;;;;5072472;28;20486;-72
2021/05/18 05:26:40;;;;;;;1.20;0.90;;;11.60;98.00;;;;;;5074668;28;20486;-73
2021/05/18 05:29:08;;;;;;;1.20;0.93;;;11.60;98.00;;;;;;5070944;28;20481;-72
2021/05/18 05:31:37;;;;;;;1.20;0.90;;;11.40;98.00;;;;;;5073359;28;20552;-73
2021/05/18 05:34:04;;;;;;;1.20;1.00;;;11.50;98.00;;;;;;5072455;28;20454;-73
2021/05/18 05:36:32;;;;;;;1.20;0.90;;;11.60;98.00;;;;;;5074787;28;20460;-72
2021/05/18 05:39:08;;;;;;;1.40;1.00;;;11.60;98.00;;;;;;5072599;28;20506;-73
2021/05/18 05:41:35;;;;;;;1.20;0.90;;;11.70;98.00;;;;;;5074707;28;20464;-72
2021/05/18 05:44:06;;;;;;;1.20;0.90;;;11.70;98.00;;;;;;5072485;28;20459;-72
2021/05/18 05:46:34;;;;;;;1.63;1.03;;;11.80;98.00;;;;;;5074441;28;20454;-72
2021/05/18 05:49:02;;;;;;;1.20;1.00;;;11.90;98.00;;;;;;5072251;28;20466;-72
2021/05/18 05:51:29;;;;;;;1.20;1.00;;;12.20;98.00;;;;;;5074361;28;20528;-73
2021/05/18 05:53:59;;;;;;;1.20;1.00;;;12.40;98.00;;;;;;5073829;28;20451;-72
2021/05/18 05:56:26;;;;;;;1.20;0.90;;;12.50;98.00;;;;;;5074029;28;20492;-73
2021/05/18 05:58:53;;;;;;;1.20;0.90;;;12.50;98.00;;;;;;5073194;28;20511;-72
2021/05/18 06:01:22;;;;;;;1.20;1.00;;;12.50;98.00;;;;;;5069521;28;20456;-72
2021/05/18 06:03:49;;;;;;;1.20;1.00;;;12.40;98.00;;;;;;5074190;28;20459;-72
2021/05/18 06:06:15;;;;;;;1.20;1.00;;;12.30;98.00;;;;;;5071040;28;20962;-72
2021/05/18 06:08:44;;;;;;;1.20;0.90;;;12.20;98.00;;;;;;5073750;28;20462;-72
2021/05/18 06:11:14;;;;;;;1.20;1.00;;;12.10;98.00;;;;;;5070085;28;20454;-73
2021/05/18 06:46:57;;;;;;;1.20;1.00;;;11.30;98.00;;;;;;5072557;28;20448;-72
2021/05/18 06:49:25;;;;;;;1.20;1.00;;;11.40;98.00;;;;;;5071009;28;21042;-72
2021/05/18 06:51:51;;;;;;;1.20;0.93;;;11.40;98.00;;;;;;5073292;28;20486;-73
2021/05/18 06:54:18;;;;;;;1.20;0.90;;;11.30;98.00;;;;;;5070402;28;20451;-72
2021/05/18 06:56:50;;;;;;;1.20;0.90;;;11.30;98.00;;;;;;5073139;28;20464;-73
2021/05/18 07:02:01;;;;;;;1.20;1.00;;;11.40;98.00;;;;;;5073153;28;20516;-72
2021/05/18 07:04:29;;;;;;;1.20;0.93;;;11.50;98.00;;;;;;5070345;28;20517;-73
2021/05/18 07:07:04;;;;;;;1.20;1.00;;;11.60;98.00;;;;;;5073074;28;20459;-72
2021/05/18 07:09:30;;;;;;;1.20;0.90;;;11.70;98.00;;;;;;5070441;28;20468;-72
2021/05/18 07:11:57;;;;;;;1.20;1.00;;;11.80;98.00;;;;;;5072919;28;20468;-72
2021/05/18 07:14:23;;;;;;;1.20;0.90;;;11.90;98.00;;;;;;5070300;28;20529;-72
2021/05/18 07:16:50;;;;;;;1.20;1.10;;;12.00;98.00;;;;;;5072448;28;20471;-72
2021/05/18 07:19:16;;;;;;;1.20;0.90;;;12.10;98.00;;;;;;5068538;28;20488;-73
2021/05/18 07:21:44;;;;;;;1.20;1.00;;;12.20;98.00;;;;;;5071018;28;20505;-74
2021/05/18 07:24:17;;;;;;;1.20;1.00;;;12.30;98.00;;;;;;5068849;28;20457;-71
2021/05/18 07:26:45;;;;;;;1.20;0.90;;;12.50;98.00;;;;;;5072037;28;20457;-73
2021/05/18 07:29:12;;;;;;;1.20;1.00;;;12.70;98.00;;;;;;5069807;28;20540;-72
2021/05/18 07:31:38;;;;;;;1.20;0.90;;;12.70;98.00;;;;;;5071834;28;20450;-71
2021/05/18 07:34:07;;;;;;;1.20;0.90;;;12.70;98.00;;;;;;5071733;28;20463;-73
2021/05/18 07:36:33;;;;;;;1.20;0.90;;;12.60;98.00;;;;;;5070673;28;20485;-73
2021/05/18 07:39:01;;;;;;;1.20;0.90;;;12.50;98.00;;;;;;5071801;28;20505;-72
2021/05/18 07:41:28;;;;;;;1.20;0.90;;;12.50;98.00;;;;;;5069207;28;20460;-73
2021/05/18 07:43:54;;;;;;;1.20;0.90;;;12.40;98.00;;;;;;5071490;28;20455;-73
2021/05/18 07:46:23;;;;;;;1.20;1.00;;;12.30;98.00;;;;;;5068812;28;20467;-73
2021/05/18 07:51:38;;;;;;;1.47;1.10;;;12.30;98.00;;;;;;5067492;28;20543;-73
2021/05/18 07:59:40;;;;;;;1.33;1.10;;;12.60;98.00;;;;;;5068682;28;20503;-74
2021/05/18 08:07:34;;;;;;;1.20;0.90;;;13.00;98.00;;;;;;5071293;28;20449;-72
2021/05/18 08:10:08;;;;;;;1.20;1.00;;;13.10;98.00;;;;;;5069054;28;20449;-71
2021/05/18 08:12:35;;;;;;;1.20;1.00;;;13.20;98.00;;;;;;5070181;28;20456;-72
2021/05/18 08:17:58;;;;;;;1.20;1.00;;;13.30;98.00;;;;;;5064415;28;20968;-73
2021/05/18 08:20:43;;;;;;;1.20;1.00;;;13.10;98.00;;;;;;5068742;28;20481;-74
2021/05/18 09:44:06;;;;;;;1.20;1.00;;;13.90;98.00;;;;;;5089584;28;20458;-71
2021/05/18 10:35:48;;;;;;;1.20;1.10;;;13.00;98.00;;;;;;5069946;28;20441;-72
2021/05/18 10:38:26;;;;;;;1.20;0.90;;;12.90;98.00;;;;;;5073131;28;20448;-72
2021/05/18 10:40:54;;;;;;;1.20;1.00;;;12.90;98.00;;;;;;5070696;28;20508;-72
2021/05/18 10:43:28;;;;;;;1.20;1.00;;;12.80;98.00;;;;;;5072770;28;20462;-72
2021/05/18 10:46:05;;;;;;;1.30;1.10;;;12.90;98.00;;;;;;5069597;28;20455;-71
2021/05/18 10:49:05;;;;;;;1.40;1.00;;;12.70;98.00;;;;;;5072766;28;20459;-73
2021/05/18 10:51:51;;;;;;;1.20;0.90;;;12.60;98.00;;;;;;5070068;28;20459;-73
2021/05/18 10:54:21;;;;;;;1.20;1.00;;;12.50;98.00;;;;;;5072573;28;20797;-72
2021/05/18 10:57:19;;;;;;;1.20;1.00;;;12.60;98.00;;;;;;5069602;28;20514;-72
2021/05/18 10:59:55;;;;;;;1.20;1.00;;;12.60;98.00;;;;;;5069772;28;20488;-72
2021/05/18 11:02:24;;;;;;;1.20;0.90;;;12.80;98.00;;;;;;5072597;28;20518;-73
2021/05/18 11:05:04;;;;;;;1.20;0.90;;;13.30;98.00;;;;;;5069523;28;21000;-72
2021/05/18 11:07:34;;;;;;;1.20;1.00;;;13.90;98.00;;;;;;5072309;28;20454;-72
2021/05/18 11:10:03;;;;;;;1.57;1.30;;;14.50;98.00;;;;;;5069414;28;20461;-73
2021/05/18 11:12:31;;;;;;;1.20;1.00;;;15.00;98.00;;;;;;5071895;28;20465;-72
2021/05/18 11:15:13;;;;;;;1.20;1.00;;;15.50;98.00;;;;;;5069788;28;20463;-72
2021/05/18 11:17:47;;;;;;;1.20;1.00;;;15.70;98.00;;;;;;5071712;28;20468;-74
2021/05/18 11:20:23;;;;;;;1.20;1.10;;;16.20;98.00;;;;;;5068771;28;20491;-72
2021/05/18 11:25:47;;;;;;;1.20;1.00;;;16.80;97.60;;;;;;5069550;28;20443;-72
2021/05/18 11:28:21;;;;;;;1.20;1.00;;;16.90;97.50;;;;;;5071972;28;20903;-72
2021/05/18 11:30:57;;;;;;;1.20;0.90;;;17.20;98.00;;;;;;5069480;28;20790;-74
2021/05/18 11:33:30;;;;;;;1.20;1.00;;;17.80;98.00;;;;;;5071648;28;20460;-74
2021/05/18 11:36:07;;;;;;;1.20;1.10;;;18.30;96.90;;;;;;5070057;28;20478;-74
2021/05/18 11:38:35;;;;;;;1.60;1.10;;;18.60;93.30;;;;;;5072071;28;20513;-74
2021/05/18 11:41:02;;;;;;;1.20;1.00;;;18.90;98.00;;;;;;5068348;28;20488;-74
2021/05/18 11:43:34;;;;;;;1.20;1.00;;;19.20;95.80;;;;;;5071731;28;20475;-74
2021/05/18 11:46:07;;;;;;;1.20;1.10;;;18.70;90.00;;;;;;5069770;28;20483;-74
2021/05/18 11:48:34;;;;;;;1.20;1.10;;;18.10;93.40;;;;;;5071841;28;20468;-74
2021/05/18 11:51:07;;;;;;;1.20;1.00;;;17.90;96.80;;;;;;5069317;28;20939;-74
2021/05/18 11:53:37;;;;;;;1.87;1.10;;;17.90;95.60;;;;;;5071583;28;20457;-74
2021/05/18 11:56:17;;;;;;;1.20;1.00;;;18.20;95.00;;;;;;5068957;28;20459;-74
2021/05/18 11:58:44;;;;;;;1.20;1.00;;;18.30;97.80;;;;;;5069939;28;20460;-74
2021/05/18 12:01:11;;;;;;;1.23;1.10;;;18.50;94.60;;;;;;5069056;28;20464;-73
2021/05/18 12:03:37;;;;;;;1.20;1.10;;;18.80;91.70;;;;;;5070952;28;20456;-71
2021/05/18 12:06:07;;;;;;;1.20;1.00;;;18.50;89.70;;;;;;5068519;28;20471;-72
2021/05/18 12:08:36;;;;;;;1.20;1.00;;;18.30;90.70;;;;;;5070947;28;20449;-72
2021/05/18 12:11:18;;;;;;;1.20;1.10;;;18.00;91.00;;;;;;5068859;28;20449;-73
2021/05/18 12:13:47;;;;;;;1.20;1.00;;;17.60;94.10;;;;;;5070982;28;20470;-73
2021/05/18 12:16:15;;;;;;;1.20;1.00;;;17.10;94.10;;;;;;5068092;28;20489;-74
2021/05/18 12:18:43;;;;;;;1.30;1.20;;;16.90;94.60;;;;;;5070871;28;20509;-74
2021/05/18 12:21:14;;;;;;;1.53;1.17;;;16.60;94.40;;;;;;5068732;28;21074;-74
2021/05/18 12:23:41;;;;;;;1.20;1.00;;;16.40;97.20;;;;;;5070749;28;20458;-74
2021/05/18 12:26:16;;;;;;;1.20;1.10;;;16.30;94.80;;;;;;5068783;28;20475;-72
2021/05/18 12:28:57;;;;;;;1.20;1.00;;;15.80;92.20;;;;;;5071156;28;20456;-72
2021/05/18 12:31:32;;;;;;;1.20;1.10;;;14.80;91.60;;;;;;5068984;28;20463;-73
2021/05/18 12:33:59;;;;;;;1.20;1.00;;;14.10;94.80;;;;;;5070840;28;20466;-72
2021/05/18 12:36:28;;;;;;;1.20;1.00;;;14.00;98.00;;;;;;5068573;28;20457;-72
2021/05/18 12:39:16;;;;;;;1.20;0.97;;;13.90;98.00;;;;;;5070982;28;20455;-72
2021/05/18 12:41:51;;;;;;;1.20;1.00;;;14.10;98.00;;;;;;5065358;28;20810;-72
2021/05/18 12:44:20;;;;;;;1.20;1.00;;;14.50;98.00;;;;;;5070887;28;20953;-73
2021/05/18 12:46:55;;;;;;;1.20;0.97;;;15.20;98.00;;;;;;5068453;28;20535;-73
2021/05/18 12:49:35;;;;;;;1.20;1.00;;;16.00;98.00;;;;;;5070965;28;20459;-74
2021/05/18 12:52:17;;;;;;;1.20;1.00;;;16.50;98.00;;;;;;5068209;28;20467;-73
2021/05/18 12:54:50;;;;;;;1.20;1.00;;;17.00;98.00;;;;;;5068029;28;20457;-71
2021/05/18 12:57:18;;;;;;;1.20;1.10;;;17.50;95.50;;;;;;5070428;28;20457;-71
2021/05/18 13:00:10;;;;;;;1.20;1.00;;;18.10;93.80;;;;;;5067903;28;21013;-80
2021/05/18 13:02:39;;;;;;;1.20;1.00;;;17.80;87.30;;;;;;5070707;28;20493;-75
2021/05/18 13:05:12;;;;;;;1.20;1.03;;;17.60;88.80;;;;;;5068630;28;20514;-74
2021/05/18 13:07:41;;;;;;;1.20;1.00;;;17.50;90.60;;;;;;5070746;28;20455;-72
2021/05/18 13:10:14;;;;;;;1.20;1.00;;;17.80;91.10;;;;;;5069866;28;20452;-74
2021/05/18 13:12:41;;;;;;;1.20;1.00;;;18.20;87.80;;;;;;5074423;28;20452;-74
2021/05/18 13:15:10;;;;;;;1.20;0.90;;;18.50;86.50;;;;;;5071844;28;20512;-73
2021/05/18 13:17:37;;;;;;;1.20;0.97;;;18.80;86.00;;;;;;5074005;28;20464;-73
2021/05/18 13:20:07;;;;;;;1.20;1.00;;;18.30;84.40;;;;;;5071595;28;20476;-74
2021/05/18 13:22:36;;;;;;;1.20;1.00;;;17.90;84.50;;;;;;5074091;28;20464;-74
2021/05/18 13:27:59;;;;;;;1.20;1.10;;;17.50;85.70;;;;;;5074000;28;20822;-73
2021/05/18 13:30:28;;;;;;;1.57;1.20;;;18.00;87.00;;;;;;5071573;28;21011;-74
2021/05/18 13:32:55;;;;;;;3.00;2.03;;;18.20;83.20;;;;;;5073806;28;20873;-73
2021/05/18 13:35:23;;;;;;;1.30;1.10;;;18.20;80.70;;;;;;5071408;28;20458;-73
2021/05/18 13:37:50;;;;;;;1.20;1.00;;;18.40;79.80;;;;;;5073575;28;20456;-74
2021/05/18 13:40:18;;;;;;;1.20;1.00;;;18.90;81.50;;;;;;5071243;28;20827;-73
2021/05/18 13:42:48;;;;;;;1.20;1.10;;;19.30;82.10;;;;;;5073579;28;20821;-72
2021/05/18 13:45:15;;;;;;;1.20;1.10;;;19.40;79.40;;;;;;5071388;28;20453;-73
2021/05/18 13:47:42;;;;;;;1.20;1.13;;;19.60;79.80;;;;;;5073621;28;20457;-73
2021/05/18 13:50:10;;;;;;;1.20;1.00;;;19.60;78.10;;;;;;5071344;28;20460;-73
2021/05/18 13:52:37;;;;;;;1.20;1.10;;;19.40;77.70;;;;;;5072019;28;20859;-74
2021/05/18 13:55:05;;;;;;;1.20;1.00;;;19.10;78.20;;;;;;5071166;28;20464;-74
2021/05/18 13:57:32;;;;;;;1.20;1.17;;;18.60;81.90;;;;;;5073172;28;20452;-73
2021/05/18 14:00:21;;;;;;;1.20;1.00;;;18.40;80.60;;;;;;5071229;28;20982;-73
2021/05/18 14:02:50;;;;;;;1.20;1.10;;;18.80;80.60;;;;;;5073139;28;20538;-73
2021/05/18 14:05:19;;;;;;;1.20;1.10;;;19.10;80.20;;;;;;5071250;28;20461;-73
2021/05/18 14:10:59;;;;;;;1.20;1.00;;;19.90;80.30;;;;;;5067059;28;20959;-72
2021/05/18 14:13:28;;;;;;;1.20;1.00;;;20.40;80.70;;;;;;5073110;28;20822;-72
2021/05/18 14:15:55;;;;;;;1.20;1.00;;;20.70;80.00;;;;;;5070882;28;20521;-72
2021/05/18 14:18:23;;;;;;;1.20;1.00;;;21.20;77.40;;;;;;5073134;28;20875;-73
2021/05/18 14:20:50;;;;;;;1.53;1.10;;;21.20;75.90;;;;;;5070507;28;20538;-72
2021/05/18 14:23:22;;;;;;;1.20;1.10;;;21.10;74.40;;;;;;5072950;28;20449;-72
2021/05/18 14:25:49;;;;;;;1.20;1.10;;;21.00;76.80;;;;;;5070716;28;20465;-73
2021/05/18 14:28:15;;;;;;;1.20;1.00;;;21.00;74.30;;;;;;5070586;28;20457;-72
2021/05/18 14:30:42;;;;;;;1.20;1.00;;;20.80;76.10;;;;;;5070245;28;20487;-72
2021/05/18 14:33:11;;;;;;;1.20;1.10;;;20.60;76.50;;;;;;5072815;28;20461;-74
2021/05/18 14:35:47;;;;;;;1.20;1.00;;;20.20;76.50;;;;;;5069580;28;20854;-73
2021/05/18 14:38:16;;;;;;;1.20;1.10;;;19.30;78.90;;;;;;5071674;28;20545;-74
2021/05/18 14:46:31;;;;;;;1.20;1.00;;;17.20;84.90;;;;;;5058993;28;20558;-73
2021/05/18 14:57:13;;;;;;;1.20;1.00;;;14.60;93.00;;;;;;5069461;28;20462;-73
2021/05/18 14:59:39;;;;;;;1.20;0.90;;;14.40;94.70;;;;;;5053806;28;21021;-73
2021/05/18 15:02:07;;;;;;;1.20;1.00;;;14.40;95.10;;;;;;5069435;28;20949;-73
2021/05/18 15:04:35;;;;;;;1.20;1.00;;;14.40;97.30;;;;;;5070758;28;20462;-73
2021/05/18 15:07:11;;;;;;;1.20;1.00;;;14.00;98.00;;;;;;5067998;28;20533;-73
2021/05/18 15:09:39;;;;;;;1.20;1.00;;;14.60;98.00;;;;;;5064338;28;21008;-73
2021/05/18 15:12:06;;;;;;;1.20;1.00;;;15.40;95.50;;;;;;5069634;28;20473;-73
2021/05/18 15:14:34;;;;;;;1.20;1.00;;;16.20;93.30;;;;;;5071423;28;20466;-73
2021/05/18 15:17:01;;;;;;;1.20;1.00;;;17.10;93.20;;;;;;5069344;28;20973;-73
2021/05/18 15:19:29;;;;;;;1.20;1.13;;;17.60;85.60;;;;;;5071865;28;20959;-73
2021/05/18 15:21:57;;;;;;;1.20;1.00;;;17.90;85.00;;;;;;5069328;28;20461;-73
2021/05/18 15:24:25;;;;;;;1.20;1.10;;;18.50;85.60;;;;;;5071781;28;20458;-72
2021/05/18 15:26:51;;;;;;;1.20;1.10;;;19.00;83.70;;;;;;5069590;28;20526;-72
2021/05/18 15:29:18;;;;;;;1.20;1.00;;;19.50;82.80;;;;;;5071714;28;20453;-72
2021/05/18 15:31:44;;;;;;;1.20;1.00;;;19.80;83.40;;;;;;5069936;28;20514;-71
2021/05/18 15:34:11;;;;;;;3.40;1.50;;;20.10;83.90;;;;;;5070917;28;20457;-71
2021/05/18 15:36:39;;;;;;;1.20;1.00;;;20.20;82.80;;;;;;5069349;28;20525;-72
2021/05/18 15:39:06;;;;;;;1.20;1.00;;;20.20;83.80;;;;;;5071326;28;20540;-72
2021/05/18 15:41:33;;;;;;;1.40;1.10;;;20.40;82.40;;;;;;5068602;28;20464;-72
2021/05/18 15:44:02;;;;;;;1.20;1.10;;;20.10;80.50;;;;;;5070418;28;20449;-73
2021/05/18 15:46:29;;;;;;;1.20;1.00;;;19.80;83.70;;;;;;5069230;28;20461;-73
2021/05/18 15:48:55;;;;;;;1.20;1.00;;;19.70;83.10;;;;;;5071393;28;20500;-73
2021/05/18 15:51:22;;;;;;;1.20;1.00;;;19.70;84.80;;;;;;5069231;28;20465;-74
2021/05/18 15:53:48;;;;;;;1.30;1.10;;;19.60;84.50;;;;;;5071435;28;20489;-74
2021/05/18 15:56:15;;;;;;;1.20;1.10;;;19.30;81.60;;;;;;5069120;28;21089;-74
2021/05/18 15:58:42;;;;;;;1.20;1.00;;;18.80;80.90;;;;;;5071163;28;20457;-73
2021/05/18 16:01:09;;;;;;;1.67;1.20;;;18.80;81.90;;;;;;5068931;28;20558;-73
2021/05/18 16:03:35;;;;;;;1.20;1.00;;;19.00;84.30;;;;;;5071085;28;20472;-72
2021/05/18 16:06:03;;;;;;;1.40;1.20;;;19.30;81.80;;;;;;5067820;28;20460;-74
2021/05/18 16:11:14;;;;;;;1.20;1.00;;;18.60;82.50;;;;;;5069118;28;20444;-73
2021/05/18 16:13:42;;;;;;;1.20;1.00;;;18.60;79.60;;;;;;5070748;28;20826;-74
2021/05/18 16:16:11;;;;;;;1.20;1.00;;;18.00;80.90;;;;;;5068786;28;20831;-74
2021/05/18 16:18:38;;;;;;;1.20;1.10;;;17.70;82.30;;;;;;5070876;28;20453;-74
2021/05/18 16:21:06;;;;;;;1.20;1.00;;;17.50;83.30;;;;;;5067671;28;20484;-74
2021/05/18 16:23:33;;;;;;;1.20;1.00;;;17.10;83.80;;;;;;5070862;28;20460;-73
2021/05/18 16:26:00;;;;;;;1.20;1.00;;;17.10;85.00;;;;;;5068700;28;20822;-73
2021/05/18 16:28:26;;;;;;;1.30;1.10;;;17.10;85.40;;;;;;5070698;28;20469;-74
2021/05/18 16:30:54;;;;;;;1.20;1.00;;;16.80;86.20;;;;;;5068811;28;20470;-74
2021/05/18 16:33:21;;;;;;;1.20;1.10;;;16.50;85.40;;;;;;5070737;28;20471;-74
2021/05/18 16:35:48;;;;;;;1.20;1.00;;;16.20;86.50;;;;;;5068653;28;20540;-74
2021/05/18 16:38:14;;;;;;;1.20;1.00;;;16.00;88.20;;;;;;5070631;28;20460;-74
2021/05/18 16:40:41;;;;;;;1.20;0.90;;;16.10;88.80;;;;;;5068276;28;20481;-73
2021/05/18 16:43:14;;;;;;;1.20;1.07;;;15.90;88.80;;;;;;5069786;28;21127;-73
2021/05/18 16:45:41;;;;;;;1.20;1.00;;;15.70;88.00;;;;;;5086259;28;20527;-72
2021/05/18 16:48:10;;;;;;;1.20;1.10;;;15.30;87.00;;;;;;5074731;28;20464;-72
2021/05/18 16:50:36;;;;;;;1.20;1.00;;;14.90;90.00;;;;;;5071315;28;20452;-73
2021/05/18 16:53:03;;;;;;;1.20;0.97;;;14.10;95.20;;;;;;5072527;28;20457;-73
2021/05/18 16:55:30;;;;;;;1.20;1.00;;;13.50;97.30;;;;;;5071560;28;20510;-73
2021/05/18 16:57:56;;;;;;;1.20;1.00;;;13.00;98.00;;;;;;5074091;28;20957;-71
2021/05/18 17:00:25;;;;;;;1.20;1.00;;;12.60;98.00;;;;;;5072351;28;20847;-72
2021/05/18 17:02:51;;;;;;;1.20;0.90;;;12.40;98.00;;;;;;5074335;28;20897;-71
2021/05/18 17:05:19;;;;;;;1.20;1.10;;;12.40;98.00;;;;;;5071619;28;20639;-71
2021/05/18 17:07:45;;;;;;;1.20;0.90;;;12.40;98.00;;;;;;5074266;28;20453;-71
2021/05/18 17:10:13;;;;;;;1.20;0.90;;;12.50;98.00;;;;;;5071987;28;20845;-71
2021/05/18 17:12:39;;;;;;;1.20;1.00;;;12.60;98.00;;;;;;5073971;28;20475;-74
2021/05/18 17:15:08;;;;;;;1.20;1.00;;;12.60;98.00;;;;;;5086804;28;20968;-74
2021/05/18 17:17:35;;;;;;;1.20;1.00;;;12.60;98.00;;;;;;5094149;28;20455;-74
2021/05/18 17:20:03;;;;;;;1.20;1.00;;;12.60;98.00;;;;;;5094153;28;20537;-74
2021/05/18 17:22:30;;;;;;;1.20;1.00;;;12.40;98.00;;;;;;5092779;28;20962;-74
2021/05/18 17:24:57;;;;;;;1.20;1.00;;;12.50;98.00;;;;;;5094473;28;20873;-74
2021/05/18 17:27:23;;;;;;;1.20;0.90;;;12.30;98.00;;;;;;5091924;28;20461;-73
2021/05/18 17:29:50;;;;;;;1.20;1.00;;;12.20;98.00;;;;;;5094898;28;20968;-73
2021/05/18 17:32:17;;;;;;;1.20;0.93;;;12.40;98.00;;;;;;5091386;28;20520;-73
2021/05/18 17:34:46;;;;;;;1.20;1.00;;;12.60;98.00;;;;;;5094187;28;20935;-74
2021/05/18 17:37:12;;;;;;;1.30;1.07;;;12.60;98.00;;;;;;5090842;28;21053;-74
2021/05/18 17:39:41;;;;;;;1.20;1.00;;;12.40;98.00;;;;;;5094472;28;20856;-74
2021/05/18 17:42:08;;;;;;;1.30;1.00;;;12.40;98.00;;;;;;5091409;28;20465;-74
2021/05/18 17:44:36;;;;;;;1.20;1.00;;;12.30;98.00;;;;;;5093897;28;20848;-73